Tropical Cyclones
[Index]
Main Index Home Page Stock Weather Photos Extreme Storms Discussion Storm News and Storm Chasing Reports Tropical Cyclones / Hurricanes / Typhoons Weather Data and Links Wild Fires / Bushfires Weather Observation Techniques Weather Picture Catalogue Tornado Pictures and Reports Stock Video Footage and DVDs for sale
Season 1970-1971 Tropical Cyclone SHEILASOPHI Track Map
Season 1970-1971 Summaries: [BoM-AU] [JTWC-AU] [JTWC-SIO] [JTWC-SPAC] [JTWC-SH]
<<- Previous TC | JTWC 1970-1971 Season | Next TC ->>

click for intensity scale information  Lat/long Grid: Show Hide

 Date Labels: Show Hide

Joint Typhoon Warning Centre Cyclone Data

Name: SHEILASOPHI
Number: 757 / 7112

29 Jan 1971 00:00 UTC to 06 Feb 1971 00:00 UTC

    date/time    lat    long     hPa   cat  kts
1971-01-29 00   14.0   121.0                  20          
1971-01-29 06   14.0   120.8                  30          
1971-01-29 12   14.0   120.5                  35          
1971-01-29 18   14.0   120.3            1     40          
1971-01-30 00   14.0   120.0            1     40          
1971-01-30 06   14.0   119.7                  30          
1971-01-30 12   14.0   119.4                  20          
1971-01-30 18   14.0   119.2                  35          
1971-01-31 00   14.0   119.0            1     45          
1971-01-31 06   14.2   118.6            1     40          
1971-01-31 12   14.6   118.2                  35          
1971-01-31 18   14.7   117.5                  25          
1971-02-01 00   15.0   117.0                  25          
1971-02-01 06   15.7   117.0                  25          
1971-02-01 12   16.6   117.0                  30          
1971-02-01 18   17.3   117.0                  30          
1971-02-02 00   18.0   117.0                  35          
1971-02-02 06   18.6   117.0            1     40          
1971-02-02 12   19.2   117.0            2     55          
1971-02-02 18   19.6   117.0            2     65          
1971-02-03 00   20.0   117.0            2     70          
1971-02-03 06   21.3   117.2            1     50          
1971-02-03 12   22.6   117.6                  30          
1971-02-03 18   23.3   117.9                  30          
1971-02-04 00   24.0   118.0                  30          
1971-02-04 06   24.6   118.0                  30          
1971-02-04 12   25.3   118.0                  30          
1971-02-04 18   26.4   118.0                  25          
1971-02-05 00   28.0   118.0                  25          
1971-02-05 06   29.8   118.3                  25          
1971-02-05 12   31.5   118.8                  25          
1971-02-05 18   32.9   119.4                  20          
1971-02-06 00   34.0   120.0                  20          
Winds are 1-min average.

Tropical cyclone tracks developed by Michael Bath using data from the Joint Typhoon Warning Centre Best Tracks and Google Maps.


[Australian Severe Weather index] [Copyright Notice] [Email Contacts] [Search This Site] [Privacy Policy]
Document: tropical_cyclone_sheilasophi.htm Updated: 18 September 2016